OOCL Jakarta — VRGO7 — position and weather

sailwx.info

Track history (hours):
 
Tides and Currents Weather Stations Pressure Air Temp Water Temp Dewpoint Dewpoint Depression Visibility Wind Speed Wind Dir Waves Ship Positions

OOCL Jakarta

Last reported at 2018-Feb-18 03:47 UTC. Time now 2018-Feb-18 06:59 UTC.
Position N 01°16' E 104°13'.

Length 261 m; draft 9.8 m.

Type: Ship. MMSI: 477738800.

Date/timePositionNaut miles runAvg speedWind from/ knotsBaromVisibWave heightAir tempDewpointWater temp
2018-Feb-18 03:47N 01°16' E 104°13'512.6
2018-Feb-18 03:25N 01°15' E 104°08'512.2
2018-Feb-18 03:00N 01°14' E 104°03'612.0
2018-Feb-18 02:29N 01°14' E 103°57'612.6
2018-Feb-18 01:59N 01°11' E 103°51'4 8.1
2018-Feb-18 01:30N 01°13' E 103°48'3 6.6
2018-Feb-18 00:59N 01°16' E 103°47'0 0.4
2018-Feb-18 00:30N 01°16' E 103°47'0 0.0
2018-Feb-18 00:00N 01°16' E 103°47'0 0.0
2018-Feb-17 23:30N 01°16' E 103°47'0 0.0
2018-Feb-17 22:54N 01°16' E 103°47'0 0.2
2018-Feb-17 22:30N 01°16' E 103°47'0 0.1
2018-Feb-17 21:57N 01°16' E 103°47'0 0.0
2018-Feb-17 21:30N 01°16' E 103°47'0 0.0
2018-Feb-17 21:00N 01°16' E 103°47'0 0.0
2018-Feb-17 20:30N 01°16' E 103°47'0 0.0
2018-Feb-17 20:00N 01°16' E 103°47'0 0.0
2018-Feb-17 19:30N 01°16' E 103°47'0 0.0
2018-Feb-17 19:00N 01°16' E 103°47'0 0.0
2018-Feb-17 18:30N 01°16' E 103°47'0 0.0
2018-Feb-17 18:00N 01°16' E 103°47'0 0.0
2018-Feb-17 17:30N 01°16' E 103°47'0 0.0
2018-Feb-17 17:00N 01°16' E 103°47'0 0.0
2018-Feb-17 16:30N 01°16' E 103°47'0 0.0
2018-Feb-17 16:00N 01°16' E 103°47'0 0.0
2018-Feb-17 15:30N 01°16' E 103°47'0 0.0
2018-Feb-17 15:00N 01°16' E 103°47'0 0.0
2018-Feb-17 14:24N 01°16' E 103°47'0 0.0
2018-Feb-17 14:00N 01°16' E 103°47'0 0.0
2018-Feb-17 13:30N 01°16' E 103°47'0 0.0
2018-Feb-17 13:00N 01°16' E 103°47'0 0.0
2018-Feb-17 12:24N 01°16' E 103°47'0 0.0
2018-Feb-17 12:00N 01°16' E 103°47'0 0.0
2018-Feb-17 11:30N 01°16' E 103°47'0 0.0
2018-Feb-17 11:00N 01°16' E 103°47'0 0.0
2018-Feb-17 10:30N 01°16' E 103°47'0 0.0
2018-Feb-17 09:54N 01°16' E 103°47'0 0.0
2018-Feb-17 09:30N 01°16' E 103°47'0 0.0
2018-Feb-17 09:00N 01°16' E 103°47'0 0.0
2018-Feb-17 08:30N 01°16' E 103°47'0 0.0
2018-Feb-17 08:00N 01°16' E 103°47'0 0.0
2018-Feb-17 07:30N 01°16' E 103°47'0 0.0
2018-Feb-17 07:00N 01°16' E 103°47'1 2.5
2018-Feb-17 06:30N 01°15' E 103°47'4 8.2
2018-Feb-17 06:01N 01°13' E 103°50'5 9.9
2018-Feb-17 05:29N 01°14' E 103°55'2 5.1
2018-Feb-17 05:00N 01°15' E 103°57'4 8.7
2018-Feb-17 04:30N 01°16' E 104°02'42715.0
2018-Feb-16 00:00N 07°18' E 107°48'   010 / 31007.4 5.4 24.122.827.4
2018-Feb-13 05:14N 22°20' E 114°07'0 0.0
2018-Feb-12 17:32N 22°19' E 114°07'31611.8
2018-Feb-11 14:41N 22°30' E 119°48'212.4
2018-Feb-11 14:30N 22°31' E 119°50'612.8
2018-Feb-11 14:00N 22°31' E 119°57'713.6
2018-Feb-11 13:31N 22°32' E 120°05'815.0
2018-Feb-11 13:00N 22°33' E 120°13'612.5
2018-Feb-11 12:30N 22°33' E 120°19'1 2.8
2018-Feb-11 12:00N 22°34' E 120°18'0 0.1
2018-Feb-11 11:30N 22°34' E 120°18'0 0.0
2018-Feb-11 11:00N 22°34' E 120°18'0 0.0
2018-Feb-11 10:30N 22°34' E 120°18'0 0.0
2018-Feb-11 10:00N 22°34' E 120°18'0 0.0
2018-Feb-11 09:30N 22°34' E 120°18'0 0.0
2018-Feb-11 09:00N 22°34' E 120°18'0 0.0
2018-Feb-11 08:30N 22°34' E 120°18'0 0.0
2018-Feb-11 08:00N 22°34' E 120°18'0 0.0
2018-Feb-11 07:30N 22°34' E 120°18'0 0.0
2018-Feb-11 07:00N 22°34' E 120°18'0 0.0
2018-Feb-11 06:30N 22°34' E 120°18'0 0.0
2018-Feb-11 06:00N 22°34' E 120°18'1 1.9
2018-Feb-11 05:30N 22°34' E 120°19'3 6.4
2018-Feb-11 05:00N 22°32' E 120°16'0 0.5
2018-Feb-11 04:30N 22°33' E 120°16'1 2.4
2018-Feb-11 04:00N 22°32' E 120°14'3 6.9
2018-Feb-11 03:31N 22°28' E 120°14'612.1
2018-Feb-11 03:00N 22°22' E 120°15'3 6.2
2018-Feb-11 02:30N 22°20' E 120°16'3 6.2
2018-Feb-11 02:00N 22°17' E 120°18'3 5.9
2018-Feb-11 01:30N 22°15' E 120°21'3 5.5
2018-Feb-11 00:59N 22°13' E 120°23'611.4
2018-Feb-11 00:29N 22°09' E 120°27'40 7.4
2018-Feb-10 19:08N 22°02' E 121°09'213.9
2018-Feb-10 19:00N 22°03' E 121°10'713.5
2018-Feb-10 18:30N 22°08' E 121°16'713.4
2018-Feb-10 17:57N 22°13' E 121°22'1613.2
2018-Feb-10 16:45N 22°23' E 121°35'413.4
2018-Feb-10 16:28N 22°25' E 121°38'612.5
2018-Feb-10 15:59N 22°30' E 121°43'712.2
2018-Feb-10 15:25N 22°34' E 121°48'612.4
2018-Feb-10 14:57N 22°39' E 121°52'613.1
2018-Feb-10 14:28N 22°43' E 121°57'713.1
2018-Feb-10 13:54N 22°49' E 122°02'814.0
2018-Feb-10 13:21N 22°54' E 122°08'7216.1
2018-Feb-10 08:53N 23°48' E 123°01'616.9
2018-Feb-10 08:30N 23°52' E 123°05'917.1
2018-Feb-10 08:01N 23°59' E 123°12'817.0
2018-Feb-10 07:31N 24°05' E 123°18'917.6
2018-Feb-10 07:00N 24°12' E 123°24'918.1
2018-Feb-10 06:30N 24°19' E 123°31'918.4
2018-Feb-10 06:00N 24°26' E 123°37'918.3
2018-Feb-10 05:30N 24°32' E 123°44'9817.8
2018-Feb-10 00:00N 25°30' E 125°12'75018.8 120 / 111012.510.8 24.121.525.8
2018-Feb-08 08:00N 34°31' E 135°12'  
Track history (hours):
 
Tides and Currents Weather Stations Pressure Air Temp Water Temp Dewpoint Dewpoint Depression Visibility Wind Speed Wind Dir Waves Ship Positions

OOCL Jakarta

Last reported at 2018-Feb-18 03:47 UTC. Time now 2018-Feb-18 06:59 UTC.
Position N 01°16' E 104°13'.

Length 261 m; draft 9.8 m.

Type: Ship. MMSI: 477738800.

Date/timePositionNaut miles runAvg speedWind from/ knotsBaromVisibWave heightAir tempDewpointWater temp
2018-Feb-18 03:47N 01°16' E 104°13'512.6
2018-Feb-18 03:25N 01°15' E 104°08'512.2
2018-Feb-18 03:00N 01°14' E 104°03'612.0
2018-Feb-18 02:29N 01°14' E 103°57'612.6
2018-Feb-18 01:59N 01°11' E 103°51'4 8.1
2018-Feb-18 01:30N 01°13' E 103°48'3 6.6
2018-Feb-18 00:59N 01°16' E 103°47'0 0.4
2018-Feb-18 00:30N 01°16' E 103°47'0 0.0
2018-Feb-18 00:00N 01°16' E 103°47'0 0.0
2018-Feb-17 23:30N 01°16' E 103°47'0 0.0
2018-Feb-17 22:54N 01°16' E 103°47'0 0.2
2018-Feb-17 22:30N 01°16' E 103°47'0 0.1
2018-Feb-17 21:57N 01°16' E 103°47'0 0.0
2018-Feb-17 21:30N 01°16' E 103°47'0 0.0
2018-Feb-17 21:00N 01°16' E 103°47'0 0.0
2018-Feb-17 20:30N 01°16' E 103°47'0 0.0
2018-Feb-17 20:00N 01°16' E 103°47'0 0.0
2018-Feb-17 19:30N 01°16' E 103°47'0 0.0
2018-Feb-17 19:00N 01°16' E 103°47'0 0.0
2018-Feb-17 18:30N 01°16' E 103°47'0 0.0
2018-Feb-17 18:00N 01°16' E 103°47'0 0.0
2018-Feb-17 17:30N 01°16' E 103°47'0 0.0
2018-Feb-17 17:00N 01°16' E 103°47'0 0.0
2018-Feb-17 16:30N 01°16' E 103°47'0 0.0
2018-Feb-17 16:00N 01°16' E 103°47'0 0.0
2018-Feb-17 15:30N 01°16' E 103°47'0 0.0
2018-Feb-17 15:00N 01°16' E 103°47'0 0.0
2018-Feb-17 14:24N 01°16' E 103°47'0 0.0
2018-Feb-17 14:00N 01°16' E 103°47'0 0.0
2018-Feb-17 13:30N 01°16' E 103°47'0 0.0
2018-Feb-17 13:00N 01°16' E 103°47'0 0.0
2018-Feb-17 12:24N 01°16' E 103°47'0 0.0
2018-Feb-17 12:00N 01°16' E 103°47'0 0.0
2018-Feb-17 11:30N 01°16' E 103°47'0 0.0
2018-Feb-17 11:00N 01°16' E 103°47'0 0.0
2018-Feb-17 10:30N 01°16' E 103°47'0 0.0
2018-Feb-17 09:54N 01°16' E 103°47'0 0.0
2018-Feb-17 09:30N 01°16' E 103°47'0 0.0
2018-Feb-17 09:00N 01°16' E 103°47'0 0.0
2018-Feb-17 08:30N 01°16' E 103°47'0 0.0
2018-Feb-17 08:00N 01°16' E 103°47'0 0.0
2018-Feb-17 07:30N 01°16' E 103°47'0 0.0
2018-Feb-17 07:00N 01°16' E 103°47'1 2.5
2018-Feb-17 06:30N 01°15' E 103°47'4 8.2
2018-Feb-17 06:01N 01°13' E 103°50'5 9.9
2018-Feb-17 05:29N 01°14' E 103°55'2 5.1
2018-Feb-17 05:00N 01°15' E 103°57'4 8.7
2018-Feb-17 04:30N 01°16' E 104°02'42715.0
2018-Feb-16 00:00N 07°18' E 107°48'   010 / 31007.4 5.4 24.122.827.4
2018-Feb-13 05:14N 22°20' E 114°07'0 0.0
2018-Feb-12 17:32N 22°19' E 114°07'31611.8
2018-Feb-11 14:41N 22°30' E 119°48'212.4
2018-Feb-11 14:30N 22°31' E 119°50'612.8
2018-Feb-11 14:00N 22°31' E 119°57'713.6
2018-Feb-11 13:31N 22°32' E 120°05'815.0
2018-Feb-11 13:00N 22°33' E 120°13'612.5
2018-Feb-11 12:30N 22°33' E 120°19'1 2.8
2018-Feb-11 12:00N 22°34' E 120°18'0 0.1
2018-Feb-11 11:30N 22°34' E 120°18'0 0.0
2018-Feb-11 11:00N 22°34' E 120°18'0 0.0
2018-Feb-11 10:30N 22°34' E 120°18'0 0.0
2018-Feb-11 10:00N 22°34' E 120°18'0 0.0
2018-Feb-11 09:30N 22°34' E 120°18'0 0.0
2018-Feb-11 09:00N 22°34' E 120°18'0 0.0
2018-Feb-11 08:30N 22°34' E 120°18'0 0.0
2018-Feb-11 08:00N 22°34' E 120°18'0 0.0
2018-Feb-11 07:30N 22°34' E 120°18'0 0.0
2018-Feb-11 07:00N 22°34' E 120°18'0 0.0
2018-Feb-11 06:30N 22°34' E 120°18'0 0.0
2018-Feb-11 06:00N 22°34' E 120°18'1 1.9
2018-Feb-11 05:30N 22°34' E 120°19'3 6.4
2018-Feb-11 05:00N 22°32' E 120°16'0 0.5
2018-Feb-11 04:30N 22°33' E 120°16'1 2.4
2018-Feb-11 04:00N 22°32' E 120°14'3 6.9
2018-Feb-11 03:31N 22°28' E 120°14'612.1
2018-Feb-11 03:00N 22°22' E 120°15'3 6.2
2018-Feb-11 02:30N 22°20' E 120°16'3 6.2
2018-Feb-11 02:00N 22°17' E 120°18'3 5.9
2018-Feb-11 01:30N 22°15' E 120°21'3 5.5
2018-Feb-11 00:59N 22°13' E 120°23'611.4
2018-Feb-11 00:29N 22°09' E 120°27'40 7.4
2018-Feb-10 19:08N 22°02' E 121°09'213.9
2018-Feb-10 19:00N 22°03' E 121°10'713.5
2018-Feb-10 18:30N 22°08' E 121°16'713.4
2018-Feb-10 17:57N 22°13' E 121°22'1613.2
2018-Feb-10 16:45N 22°23' E 121°35'413.4
2018-Feb-10 16:28N 22°25' E 121°38'612.5
2018-Feb-10 15:59N 22°30' E 121°43'712.2
2018-Feb-10 15:25N 22°34' E 121°48'612.4
2018-Feb-10 14:57N 22°39' E 121°52'613.1
2018-Feb-10 14:28N 22°43' E 121°57'713.1
2018-Feb-10 13:54N 22°49' E 122°02'814.0
2018-Feb-10 13:21N 22°54' E 122°08'7216.1
2018-Feb-10 08:53N 23°48' E 123°01'616.9
2018-Feb-10 08:30N 23°52' E 123°05'917.1
2018-Feb-10 08:01N 23°59' E 123°12'817.0
2018-Feb-10 07:31N 24°05' E 123°18'917.6
2018-Feb-10 07:00N 24°12' E 123°24'918.1
2018-Feb-10 06:30N 24°19' E 123°31'918.4
2018-Feb-10 06:00N 24°26' E 123°37'918.3
2018-Feb-10 05:30N 24°32' E 123°44'9817.8
2018-Feb-10 00:00N 25°30' E 125°12'75018.8 120 / 111012.510.8 24.121.525.8
2018-Feb-08 08:00N 34°31' E 135°12'  

Dump ship's entire track history